< < Back
Terminal Aerodrome Forecast


Current Version              Previous Versions:   1  2  3  4  5  6  7  8  9  

Terminal Aerodrome Forecast

621
FTUS42 KTAE 171200 RRA
TAFVLD
TAF
KVLD 171202Z 1712/1812 06006KT P6SM BKN025
     FM171400 07011G18KT P6SM BKN025
     FM180500 08009KT 5SM RA OVC008=



Latest METAR

736
SAUS70 KWBC 180500 RRB
MTRVLD
METAR KVLD 180453Z AUTO 07007KT 10SM OVC018 17/12 A3023 RMK AO2 SLP243
T01720122 402220111


USA.gov is the U.S. government's official web portal to all federal, state and local government web resources and services.